sensor_id;sensor_type;location;lat;lon;timestamp;pressure;altitude;pressure_sealevel;temperature;humidity
58686;BME280;44465;53.206;-6.106;2023-02-20T00:00:49;102095.84;;;20.56;55.36
58686;BME280;44465;53.206;-6.106;2023-02-20T00:03:15;102092.22;;;20.59;55.70
58686;BME280;44465;53.206;-6.106;2023-02-20T00:05:42;102009.00;;;20.11;55.70
58686;BME280;44465;53.206;-6.106;2023-02-20T00:08:08;102061.56;;;20.41;55.71
58686;BME280;44465;53.206;-6.106;2023-02-20T00:10:33;102042.56;;;20.22;55.53
58686;BME280;44465;53.206;-6.106;2023-02-20T00:12:59;102091.31;;;20.58;55.54
58686;BME280;44465;53.206;-6.106;2023-02-20T00:15:24;102056.47;;;20.33;55.72
58686;BME280;44465;53.206;-6.106;2023-02-20T00:17:50;102066.69;;;20.49;55.38
58686;BME280;44465;53.206;-6.106;2023-02-20T00:20:19;102073.88;;;20.46;55.22
58686;BME280;44465;53.206;-6.106;2023-02-20T00:22:46;102064.34;;;20.38;55.49
58686;BME280;44465;53.206;-6.106;2023-02-20T00:25:11;102069.84;;;20.33;55.52
58686;BME280;44465;53.206;-6.106;2023-02-20T00:27:37;102046.16;;;20.21;55.16
58686;BME280;44465;53.206;-6.106;2023-02-20T00:30:04;102055.47;;;20.37;55.26
58686;BME280;44465;53.206;-6.106;2023-02-20T00:32:29;102085.28;;;20.52;55.51
58686;BME280;44465;53.206;-6.106;2023-02-20T00:34:55;102038.91;;;20.24;55.51
58686;BME280;44465;53.206;-6.106;2023-02-20T00:37:20;102089.63;;;20.56;55.22
58686;BME280;44465;53.206;-6.106;2023-02-20T00:39:46;102031.94;;;20.19;55.56
58686;BME280;44465;53.206;-6.106;2023-02-20T00:42:12;102058.94;;;20.39;55.40
58686;BME280;44465;53.206;-6.106;2023-02-20T00:44:37;102038.75;;;20.29;55.56
58686;BME280;44465;53.206;-6.106;2023-02-20T00:47:03;102081.63;;;20.54;55.28
58686;BME280;44465;53.206;-6.106;2023-02-20T00:49:29;102067.69;;;20.44;55.49
58686;BME280;44465;53.206;-6.106;2023-02-20T00:52:07;102063.28;;;20.43;55.32
58686;BME280;44465;53.206;-6.106;2023-02-20T00:54:33;102037.31;;;20.19;55.29
58686;BME280;44465;53.206;-6.106;2023-02-20T00:56:59;102045.00;;;20.29;55.56
58686;BME280;44465;53.206;-6.106;2023-02-20T00:59:25;101998.53;;;20.05;55.10
58686;BME280;44465;53.206;-6.106;2023-02-20T01:01:50;102014.06;;;20.21;55.30
58686;BME280;44465;53.206;-6.106;2023-02-20T01:04:16;102000.16;;;20.09;55.08
58686;BME280;44465;53.206;-6.106;2023-02-20T01:06:41;102057.91;;;20.43;55.18
58686;BME280;44465;53.206;-6.106;2023-02-20T01:09:10;102059.56;;;20.48;55.23
58686;BME280;44465;53.206;-6.106;2023-02-20T01:11:36;102017.78;;;20.17;55.16
58686;BME280;44465;53.206;-6.106;2023-02-20T01:14:02;102029.00;;;20.28;55.16
58686;BME280;44465;53.206;-6.106;2023-02-20T01:16:28;102002.13;;;20.04;54.94
58686;BME280;44465;53.206;-6.106;2023-02-20T01:18:54;102033.41;;;20.29;55.04
58686;BME280;44465;53.206;-6.106;2023-02-20T01:21:19;102030.88;;;20.24;55.30
58686;BME280;44465;53.206;-6.106;2023-02-20T01:23:45;102017.63;;;20.21;55.34
58686;BME280;44465;53.206;-6.106;2023-02-20T01:26:10;102059.72;;;20.43;55.18
58686;BME280;44465;53.206;-6.106;2023-02-20T01:28:36;102010.84;;;20.09;55.18
58686;BME280;44465;53.206;-6.106;2023-02-20T01:31:02;102057.22;;;20.38;54.89
58686;BME280;44465;53.206;-6.106;2023-02-20T01:33:31;102001.19;;;20.05;55.13
58686;BME280;44465;53.206;-6.106;2023-02-20T01:35:56;102046.38;;;20.41;55.21
58686;BME280;44465;53.206;-6.106;2023-02-20T01:38:22;102014.94;;;20.21;55.25
58686;BME280;44465;53.206;-6.106;2023-02-20T01:40:48;102002.84;;;20.09;54.81
58686;BME280;44465;53.206;-6.106;2023-02-20T01:43:14;102023.66;;;20.28;55.25
58686;BME280;44465;53.206;-6.106;2023-02-20T01:45:41;102034.84;;;20.39;55.21
58686;BME280;44465;53.206;-6.106;2023-02-20T01:48:18;102015.63;;;20.28;55.22
58686;BME280;44465;53.206;-6.106;2023-02-20T01:50:49;101992.56;;;20.24;55.04
58686;BME280;44465;53.206;-6.106;2023-02-20T01:53:19;101966.44;;;20.05;55.13
58686;BME280;44465;53.206;-6.106;2023-02-20T01:55:58;102013.66;;;20.33;54.93
58686;BME280;44465;53.206;-6.106;2023-02-20T01:58:30;101985.69;;;20.17;55.04
58686;BME280;44465;53.206;-6.106;2023-02-20T02:00:58;101988.38;;;20.15;55.24
58686;BME280;44465;53.206;-6.106;2023-02-20T02:03:28;102034.66;;;20.45;55.32
58686;BME280;44465;53.206;-6.106;2023-02-20T02:06:01;102011.25;;;20.25;54.97
58686;BME280;44465;53.206;-6.106;2023-02-20T02:08:28;102012.31;;;20.20;55.43
58686;BME280;44465;53.206;-6.106;2023-02-20T02:11:08;102043.63;;;20.44;55.15
58686;BME280;44465;53.206;-6.106;2023-02-20T02:13:35;102053.50;;;20.42;54.98
58686;BME280;44465;53.206;-6.106;2023-02-20T02:16:35;102049.06;;;20.41;55.18
58686;BME280;44465;53.206;-6.106;2023-02-20T02:40:56;102030.09;;;20.49;54.96
58686;BME280;44465;53.206;-6.106;2023-02-20T02:46:13;102009.31;;;20.30;55.09
58686;BME280;44465;53.206;-6.106;2023-02-20T02:48:51;101980.94;;;20.25;55.26
58686;BME280;44465;53.206;-6.106;2023-02-20T02:51:22;101982.63;;;20.27;55.34
58686;BME280;44465;53.206;-6.106;2023-02-20T02:54:13;102011.59;;;20.41;55.31
58686;BME280;44465;53.206;-6.106;2023-02-20T02:56:45;101993.91;;;20.37;55.28
58686;BME280;44465;53.206;-6.106;2023-02-20T02:59:15;101952.16;;;20.06;54.98
58686;BME280;44465;53.206;-6.106;2023-02-20T03:01:47;101945.06;;;20.05;55.37
58686;BME280;44465;53.206;-6.106;2023-02-20T03:04:18;101985.25;;;20.29;55.27
58686;BME280;44465;53.206;-6.106;2023-02-20T03:06:50;101976.44;;;20.27;55.07
58686;BME280;44465;53.206;-6.106;2023-02-20T03:09:25;101935.22;;;20.06;55.11
58686;BME280;44465;53.206;-6.106;2023-02-20T03:11:55;101955.47;;;20.13;55.35
58686;BME280;44465;53.206;-6.106;2023-02-20T03:14:55;101949.56;;;20.03;55.01
58686;BME280;44465;53.206;-6.106;2023-02-20T03:17:48;101976.53;;;20.24;54.92
58686;BME280;44465;53.206;-6.106;2023-02-20T03:20:20;101977.34;;;20.26;55.04
58686;BME280;44465;53.206;-6.106;2023-02-20T03:22:52;101993.91;;;20.37;55.07
58686;BME280;44465;53.206;-6.106;2023-02-20T03:25:23;101942.41;;;20.04;55.39
58686;BME280;44465;53.206;-6.106;2023-02-20T03:28:01;101979.25;;;20.22;55.31
58686;BME280;44465;53.206;-6.106;2023-02-20T03:30:40;101976.75;;;20.18;55.16
58686;BME280;44465;53.206;-6.106;2023-02-20T03:33:12;101957.69;;;20.00;54.92
58686;BME280;44465;53.206;-6.106;2023-02-20T03:36:04;101963.66;;;20.08;55.23
58686;BME280;44465;53.206;-6.106;2023-02-20T03:38:58;101936.28;;;20.00;55.03
58686;BME280;44465;53.206;-6.106;2023-02-20T03:41:45;101993.09;;;20.35;55.16
58686;BME280;44465;53.206;-6.106;2023-02-20T03:44:32;101954.59;;;20.12;55.06
58686;BME280;44465;53.206;-6.106;2023-02-20T03:47:00;101966.91;;;20.18;55.10
58686;BME280;44465;53.206;-6.106;2023-02-20T03:49:35;101997.31;;;20.42;55.13
58686;BME280;44465;53.206;-6.106;2023-02-20T03:52:03;101939.69;;;20.05;55.03
58686;BME280;44465;53.206;-6.106;2023-02-20T03:54:35;101978.72;;;20.38;54.96
58686;BME280;44465;53.206;-6.106;2023-02-20T03:59:42;101925.50;;;20.03;55.04
58686;BME280;44465;53.206;-6.106;2023-02-20T04:02:20;101949.69;;;20.27;54.70
58686;BME280;44465;53.206;-6.106;2023-02-20T04:04:49;101925.28;;;20.09;55.03
58686;BME280;44465;53.206;-6.106;2023-02-20T04:07:27;101904.31;;;19.97;55.15
58686;BME280;44465;53.206;-6.106;2023-02-20T04:09:58;101963.84;;;20.29;55.00
58686;BME280;44465;53.206;-6.106;2023-02-20T04:12:31;101934.75;;;20.20;54.90
58686;BME280;44465;53.206;-6.106;2023-02-20T04:14:59;101893.63;;;19.97;54.99
58686;BME280;44465;53.206;-6.106;2023-02-20T04:17:31;101928.25;;;20.02;55.03
58686;BME280;44465;53.206;-6.106;2023-02-20T04:20:00;101927.03;;;20.10;54.95
58686;BME280;44465;53.206;-6.106;2023-02-20T04:22:31;101958.50;;;20.29;55.38
58686;BME280;44465;53.206;-6.106;2023-02-20T04:25:02;101924.28;;;20.13;54.87
58686;BME280;44465;53.206;-6.106;2023-02-20T04:27:30;101902.34;;;20.02;55.06
58686;BME280;44465;53.206;-6.106;2023-02-20T04:29:58;101963.56;;;20.38;55.04
58686;BME280;44465;53.206;-6.106;2023-02-20T04:32:24;101925.69;;;20.24;55.05
58686;BME280;44465;53.206;-6.106;2023-02-20T04:34:51;101923.94;;;20.23;55.01
58686;BME280;44465;53.206;-6.106;2023-02-20T04:37:18;101908.16;;;20.15;54.83
58686;BME280;44465;53.206;-6.106;2023-02-20T04:39:45;101921.28;;;20.23;54.97
58686;BME280;44465;53.206;-6.106;2023-02-20T04:42:12;101951.88;;;20.41;54.79
58686;BME280;44465;53.206;-6.106;2023-02-20T04:44:38;101889.81;;;20.04;54.72
58686;BME280;44465;53.206;-6.106;2023-02-20T04:47:10;101905.66;;;20.10;55.15
58686;BME280;44465;53.206;-6.106;2023-02-20T04:49:37;101945.88;;;20.34;55.29
58686;BME280;44465;53.206;-6.106;2023-02-20T04:52:04;101952.19;;;20.32;55.42
58686;BME280;44465;53.206;-6.106;2023-02-20T04:54:31;101938.00;;;20.29;55.15
58686;BME280;44465;53.206;-6.106;2023-02-20T04:56:56;101900.41;;;20.07;54.99
58686;BME280;44465;53.206;-6.106;2023-02-20T04:59:22;101890.00;;;19.98;55.32
58686;BME280;44465;53.206;-6.106;2023-02-20T05:01:48;101951.31;;;20.31;55.28
58686;BME280;44465;53.206;-6.106;2023-02-20T05:04:17;101903.19;;;20.04;55.24
58686;BME280;44465;53.206;-6.106;2023-02-20T05:06:46;101918.81;;;20.17;54.94
58686;BME280;44465;53.206;-6.106;2023-02-20T05:09:12;101880.88;;;20.05;55.24
58686;BME280;44465;53.206;-6.106;2023-02-20T05:11:39;101952.75;;;20.41;55.08
58686;BME280;44465;53.206;-6.106;2023-02-20T05:14:04;101887.97;;;20.06;54.83
58686;BME280;44465;53.206;-6.106;2023-02-20T05:16:30;101900.13;;;20.15;55.06
58686;BME280;44465;53.206;-6.106;2023-02-20T05:18:55;101958.97;;;20.42;55.07
58686;BME280;44465;53.206;-6.106;2023-02-20T05:21:21;101948.22;;;20.43;54.98
58686;BME280;44465;53.206;-6.106;2023-02-20T05:24:05;101931.47;;;20.38;54.82
58686;BME280;44465;53.206;-6.106;2023-02-20T05:26:31;101932.38;;;20.37;55.26
58686;BME280;44465;53.206;-6.106;2023-02-20T05:28:57;101921.19;;;20.26;54.84
58686;BME280;44465;53.206;-6.106;2023-02-20T05:31:22;101922.09;;;20.25;55.24
58686;BME280;44465;53.206;-6.106;2023-02-20T05:33:48;101897.53;;;20.13;54.71
58686;BME280;44465;53.206;-6.106;2023-02-20T05:36:15;101919.63;;;20.19;54.77
58686;BME280;44465;53.206;-6.106;2023-02-20T05:38:40;101949.53;;;20.32;55.08
58686;BME280;44465;53.206;-6.106;2023-02-20T05:41:16;101874.94;;;19.95;55.10
58686;BME280;44465;53.206;-6.106;2023-02-20T05:43:41;101939.75;;;20.30;54.95
58686;BME280;44465;53.206;-6.106;2023-02-20T05:46:07;101940.28;;;20.40;54.99
58686;BME280;44465;53.206;-6.106;2023-02-20T05:48:32;101874.69;;;20.03;54.83
58686;BME280;44465;53.206;-6.106;2023-02-20T05:50:58;101874.75;;;20.02;55.07
58686;BME280;44465;53.206;-6.106;2023-02-20T05:53:27;101893.09;;;20.12;55.00
58686;BME280;44465;53.206;-6.106;2023-02-20T05:55:53;101909.72;;;20.22;55.19
58686;BME280;44465;53.206;-6.106;2023-02-20T05:58:19;101899.97;;;20.20;55.04
58686;BME280;44465;53.206;-6.106;2023-02-20T06:00:44;101943.88;;;20.39;54.71
58686;BME280;44465;53.206;-6.106;2023-02-20T06:03:10;101931.47;;;20.38;54.83
58686;BME280;44465;53.206;-6.106;2023-02-20T06:05:36;101880.13;;;20.00;55.14
58686;BME280;44465;53.206;-6.106;2023-02-20T06:08:02;101873.88;;;20.01;54.72
58686;BME280;44465;53.206;-6.106;2023-02-20T06:10:28;101954.66;;;20.38;55.13
58686;BME280;44465;53.206;-6.106;2023-02-20T06:12:54;101935.38;;;20.28;55.10
58686;BME280;44465;53.206;-6.106;2023-02-20T06:15:20;101936.09;;;20.33;54.80
58686;BME280;44465;53.206;-6.106;2023-02-20T06:17:45;101915.25;;;20.16;54.78
58686;BME280;44465;53.206;-6.106;2023-02-20T06:20:11;101878.44;;;19.97;55.37
58686;BME280;44465;53.206;-6.106;2023-02-20T06:22:36;101895.72;;;20.14;54.94
58686;BME280;44465;53.206;-6.106;2023-02-20T06:25:02;101879.31;;;19.98;55.12
58686;BME280;44465;53.206;-6.106;2023-02-20T06:27:27;101870.38;;;19.99;54.96
58686;BME280;44465;53.206;-6.106;2023-02-20T06:29:53;101894.75;;;20.17;54.94
58686;BME280;44465;53.206;-6.106;2023-02-20T06:32:18;101905.44;;;20.17;54.91
58686;BME280;44465;53.206;-6.106;2023-02-20T06:34:44;101922.03;;;20.26;54.97
58686;BME280;44465;53.206;-6.106;2023-02-20T06:37:10;101877.91;;;20.13;54.93
58686;BME280;44465;53.206;-6.106;2023-02-20T06:39:35;101874.78;;;20.00;55.02
58686;BME280;44465;53.206;-6.106;2023-02-20T06:42:01;101891.16;;;20.18;55.04
58686;BME280;44465;53.206;-6.106;2023-02-20T06:44:27;101877.47;;;20.00;54.90
58686;BME280;44465;53.206;-6.106;2023-02-20T06:46:52;101935.06;;;20.37;54.79
58686;BME280;44465;53.206;-6.106;2023-02-20T06:49:18;101928.00;;;20.35;54.77
58686;BME280;44465;53.206;-6.106;2023-02-20T06:51:43;101948.38;;;20.39;54.95
58686;BME280;44465;53.206;-6.106;2023-02-20T06:54:11;101879.44;;;19.95;55.03
58686;BME280;44465;53.206;-6.106;2023-02-20T06:56:37;101868.84;;;19.92;55.14
58686;BME280;44465;53.206;-6.106;2023-02-20T06:59:04;101874.09;;;19.95;55.20
58686;BME280;44465;53.206;-6.106;2023-02-20T07:01:37;101924.78;;;20.25;55.06
58686;BME280;44465;53.206;-6.106;2023-02-20T07:04:06;101909.38;;;20.06;55.06
58686;BME280;44465;53.206;-6.106;2023-02-20T07:06:32;101870.59;;;19.93;55.25
58686;BME280;44465;53.206;-6.106;2023-02-20T07:08:58;101905.53;;;20.13;55.06
58686;BME280;44465;53.206;-6.106;2023-02-20T07:11:23;101862.41;;;19.97;55.02
58686;BME280;44465;53.206;-6.106;2023-02-20T07:13:49;101897.38;;;20.18;55.02
58686;BME280;44465;53.206;-6.106;2023-02-20T07:16:15;101880.97;;;20.02;55.02
58686;BME280;44465;53.206;-6.106;2023-02-20T07:18:41;101883.56;;;20.05;55.05
58686;BME280;44465;53.206;-6.106;2023-02-20T07:21:07;101957.25;;;20.39;54.94
58686;BME280;44465;53.206;-6.106;2023-02-20T07:23:32;101897.88;;;20.03;54.63
58686;BME280;44465;53.206;-6.106;2023-02-20T07:25:58;101884.56;;;20.01;54.88
58686;BME280;44465;53.206;-6.106;2023-02-20T07:28:23;101970.53;;;20.42;54.96
58686;BME280;44465;53.206;-6.106;2023-02-20T07:30:49;101925.09;;;20.15;54.68
58686;BME280;44465;53.206;-6.106;2023-02-20T07:33:16;101922.41;;;20.15;55.03
58686;BME280;44465;53.206;-6.106;2023-02-20T07:35:42;101946.13;;;20.26;54.84
58686;BME280;44465;53.206;-6.106;2023-02-20T07:38:08;101884.88;;;19.92;54.97
58686;BME280;44465;53.206;-6.106;2023-02-20T07:40:34;101910.31;;;20.04;54.84
58686;BME280;44465;53.206;-6.106;2023-02-20T07:42:59;101942.69;;;20.23;55.17
58686;BME280;44465;53.206;-6.106;2023-02-20T07:45:28;101882.38;;;19.87;55.36
58686;BME280;44465;53.206;-6.106;2023-02-20T07:47:53;101943.25;;;20.33;54.96
58686;BME280;44465;53.206;-6.106;2023-02-20T07:50:19;101924.78;;;20.25;54.84
58686;BME280;44465;53.206;-6.106;2023-02-20T07:52:45;101937.75;;;20.37;54.87
58686;BME280;44465;53.206;-6.106;2023-02-20T07:55:15;101904.56;;;20.16;55.13
58686;BME280;44465;53.206;-6.106;2023-02-20T07:57:41;101915.00;;;20.24;55.10
58686;BME280;44465;53.206;-6.106;2023-02-20T08:00:13;101895.84;;;20.11;55.06
58686;BME280;44465;53.206;-6.106;2023-02-20T08:02:40;101868.53;;;20.01;54.85
58686;BME280;44465;53.206;-6.106;2023-02-20T08:05:05;101867.69;;;19.99;54.88
58686;BME280;44465;53.206;-6.106;2023-02-20T08:07:31;101908.41;;;20.34;54.90
58686;BME280;44465;53.206;-6.106;2023-02-20T08:09:56;101899.78;;;20.26;54.75
58686;BME280;44465;53.206;-6.106;2023-02-20T08:12:22;101890.03;;;20.23;54.86
58686;BME280;44465;53.206;-6.106;2023-02-20T08:14:50;101884.81;;;20.20;54.93
58686;BME280;44465;53.206;-6.106;2023-02-20T08:17:16;101869.97;;;20.11;54.95
58686;BME280;44465;53.206;-6.106;2023-02-20T08:19:42;101848.38;;;19.91;55.04
58686;BME280;44465;53.206;-6.106;2023-02-20T08:22:07;101876.06;;;20.15;54.97
58686;BME280;44465;53.206;-6.106;2023-02-20T08:24:33;101837.69;;;19.91;54.90
58686;BME280;44465;53.206;-6.106;2023-02-20T08:26:58;101896.19;;;20.27;54.89
58686;BME280;44465;53.206;-6.106;2023-02-20T08:29:24;101895.03;;;20.34;54.93
58686;BME280;44465;53.206;-6.106;2023-02-20T08:31:50;101908.31;;;20.37;55.09
58686;BME280;44465;53.206;-6.106;2023-02-20T08:34:15;101878.91;;;20.10;54.92
58686;BME280;44465;53.206;-6.106;2023-02-20T08:36:41;101907.47;;;20.35;54.84
58686;BME280;44465;53.206;-6.106;2023-02-20T08:39:06;101911.03;;;20.36;54.77
58686;BME280;44465;53.206;-6.106;2023-02-20T08:41:32;101868.53;;;20.01;54.47
58686;BME280;44465;53.206;-6.106;2023-02-20T08:43:57;101913.75;;;20.34;54.67
58686;BME280;44465;53.206;-6.106;2023-02-20T08:46:23;101903.28;;;20.28;54.90
58686;BME280;44465;53.206;-6.106;2023-02-20T08:48:49;101871.94;;;20.06;54.76
58686;BME280;44465;53.206;-6.106;2023-02-20T08:51:18;101901.78;;;20.19;54.87
58686;BME280;44465;53.206;-6.106;2023-02-20T08:53:44;101882.56;;;20.08;54.73
58686;BME280;44465;53.206;-6.106;2023-02-20T08:56:10;101849.25;;;19.91;54.72
58686;BME280;44465;53.206;-6.106;2023-02-20T08:58:38;101875.41;;;20.08;54.98
58686;BME280;44465;53.206;-6.106;2023-02-20T09:01:04;101918.34;;;20.30;54.78
58686;BME280;44465;53.206;-6.106;2023-02-20T09:03:30;101853.78;;;19.89;55.17
58686;BME280;44465;53.206;-6.106;2023-02-20T09:05:56;101857.16;;;19.94;55.00
58686;BME280;44465;53.206;-6.106;2023-02-20T09:08:21;101909.22;;;20.36;54.95
58686;BME280;44465;53.206;-6.106;2023-02-20T09:10:47;101864.09;;;20.00;54.79
58686;BME280;44465;53.206;-6.106;2023-02-20T09:13:12;101906.75;;;20.30;54.83
58686;BME280;44465;53.206;-6.106;2023-02-20T09:15:38;101869.19;;;20.08;54.66
58686;BME280;44465;53.206;-6.106;2023-02-20T09:18:06;101874.00;;;20.23;54.66
58686;BME280;44465;53.206;-6.106;2023-02-20T09:20:33;101867.88;;;20.20;54.65
58686;BME280;44465;53.206;-6.106;2023-02-20T09:22:59;101841.69;;;20.04;54.87
58686;BME280;44465;53.206;-6.106;2023-02-20T09:25:25;101874.78;;;20.27;54.74
58686;BME280;44465;53.206;-6.106;2023-02-20T09:27:51;101856.09;;;20.25;54.75
58686;BME280;44465;53.206;-6.106;2023-02-20T09:30:18;101822.88;;;20.07;54.84
58686;BME280;44465;53.206;-6.106;2023-02-20T09:32:48;101870.72;;;20.40;54.79
58686;BME280;44465;53.206;-6.106;2023-02-20T09:35:20;101861.91;;;20.38;54.92
58686;BME280;44465;53.206;-6.106;2023-02-20T09:37:47;101849.06;;;20.23;54.96
58686;BME280;44465;53.206;-6.106;2023-02-20T09:40:13;101848.84;;;20.29;54.85
58686;BME280;44465;53.206;-6.106;2023-02-20T09:45:43;101858.59;;;20.30;54.99
58686;BME280;44465;53.206;-6.106;2023-02-20T09:48:53;101865.72;;;20.31;54.77
58686;BME280;44465;53.206;-6.106;2023-02-20T09:51:15;101881.44;;;20.40;54.84
58686;BME280;44465;53.206;-6.106;2023-02-20T09:54:11;101866.31;;;20.39;54.86
58686;BME280;44465;53.206;-6.106;2023-02-20T09:56:44;101888.53;;;20.41;54.78
58686;BME280;44465;53.206;-6.106;2023-02-20T09:59:21;101870.56;;;20.45;54.71
58686;BME280;44465;53.206;-6.106;2023-02-20T10:04:21;101878.66;;;20.43;54.71
58686;BME280;44465;53.206;-6.106;2023-02-20T10:06:50;101888.34;;;20.48;54.45
58686;BME280;44465;53.206;-6.106;2023-02-20T10:09:19;101867.13;;;20.41;54.65
58686;BME280;44465;53.206;-6.106;2023-02-20T10:11:55;101881.25;;;20.45;54.56
58686;BME280;44465;53.206;-6.106;2023-02-20T10:14:35;101889.28;;;20.45;54.76
58686;BME280;44465;53.206;-6.106;2023-02-20T10:20:35;101836.00;;;20.13;54.69
58686;BME280;44465;53.206;-6.106;2023-02-20T10:26:12;101874.47;;;20.36;54.84
58686;BME280;44465;53.206;-6.106;2023-02-20T10:28:39;101866.63;;;20.30;54.89
58686;BME280;44465;53.206;-6.106;2023-02-20T10:31:21;101872.59;;;20.38;54.61
58686;BME280;44465;53.206;-6.106;2023-02-20T10:33:55;101842.88;;;20.21;54.55
58686;BME280;44465;53.206;-6.106;2023-02-20T10:36:54;101855.44;;;20.19;54.68
58686;BME280;44465;53.206;-6.106;2023-02-20T10:39:22;101837.03;;;20.09;54.62
58686;BME280;44465;53.206;-6.106;2023-02-20T10:42:06;101888.34;;;20.48;54.63
58686;BME280;44465;53.206;-6.106;2023-02-20T10:50:08;101888.19;;;20.51;54.59
58686;BME280;44465;53.206;-6.106;2023-02-20T10:52:39;101885.00;;;20.41;54.52
58686;BME280;44465;53.206;-6.106;2023-02-20T10:55:35;101895.53;;;20.45;54.67
58686;BME280;44465;53.206;-6.106;2023-02-20T10:58:09;101888.53;;;20.41;54.80
58686;BME280;44465;53.206;-6.106;2023-02-20T11:00:40;101897.28;;;20.46;54.60
58686;BME280;44465;53.206;-6.106;2023-02-20T11:03:13;101897.28;;;20.46;54.64
58686;BME280;44465;53.206;-6.106;2023-02-20T11:05:45;101892.13;;;20.40;54.61
58686;BME280;44465;53.206;-6.106;2023-02-20T11:08:12;101905.31;;;20.46;54.59
58686;BME280;44465;53.206;-6.106;2023-02-20T11:10:42;101916.84;;;20.49;54.60
58686;BME280;44465;53.206;-6.106;2023-02-20T11:13:12;101911.50;;;20.49;54.68
58686;BME280;44465;53.206;-6.106;2023-02-20T11:15:41;101891.59;;;20.30;54.71
58686;BME280;44465;53.206;-6.106;2023-02-20T11:18:20;101867.03;;;20.19;54.29
58686;BME280;44465;53.206;-6.106;2023-02-20T11:20:50;101912.50;;;20.44;54.55
58686;BME280;44465;53.206;-6.106;2023-02-20T11:23:36;101927.41;;;20.52;54.73
58686;BME280;44465;53.206;-6.106;2023-02-20T11:26:26;101922.06;;;20.52;54.33
58686;BME280;44465;53.206;-6.106;2023-02-20T11:31:34;101902.13;;;20.35;54.54
58686;BME280;44465;53.206;-6.106;2023-02-20T11:34:01;101876.06;;;20.15;54.72
58686;BME280;44465;53.206;-6.106;2023-02-20T11:36:35;101913.53;;;20.40;54.43
58686;BME280;44465;53.206;-6.106;2023-02-20T11:39:12;101898.72;;;20.30;54.71
58686;BME280;44465;53.206;-6.106;2023-02-20T11:41:41;101850.47;;;20.08;54.47
58686;BME280;44465;53.206;-6.106;2023-02-20T11:46:37;101892.28;;;20.36;54.34
58686;BME280;44465;53.206;-6.106;2023-02-20T11:49:11;101924.81;;;20.50;54.31
58686;BME280;44465;53.206;-6.106;2023-02-20T11:51:47;101931.75;;;20.56;54.53
58686;BME280;44465;53.206;-6.106;2023-02-20T11:54:25;101884.44;;;20.31;54.58
58686;BME280;44465;53.206;-6.106;2023-02-20T11:59:41;101869.59;;;20.22;54.69
58686;BME280;44465;53.206;-6.106;2023-02-20T12:05:06;101907.75;;;20.53;54.45
58686;BME280;44465;53.206;-6.106;2023-02-20T12:10:37;101919.97;;;20.60;54.44
58686;BME280;44465;53.206;-6.106;2023-02-20T12:13:04;101859.44;;;20.32;54.54
58686;BME280;44465;53.206;-6.106;2023-02-20T12:15:31;101832.19;;;20.21;54.68
58686;BME280;44465;53.206;-6.106;2023-02-20T12:20:49;101901.38;;;20.57;54.39
58686;BME280;44465;53.206;-6.106;2023-02-20T12:34:15;101883.47;;;20.59;54.29
58686;BME280;44465;53.206;-6.106;2023-02-20T12:39:49;101870.59;;;20.69;54.33
58686;BME280;44465;53.206;-6.106;2023-02-20T12:42:41;101837.44;;;20.49;54.37
58686;BME280;44465;53.206;-6.106;2023-02-20T12:45:17;101867.94;;;20.69;54.39
58686;BME280;44465;53.206;-6.106;2023-02-20T12:47:44;101865.19;;;20.70;54.32
58686;BME280;44465;53.206;-6.106;2023-02-20T12:50:22;101853.56;;;20.71;54.15
58686;BME280;44465;53.206;-6.106;2023-02-20T13:00:46;101794.31;;;20.33;54.07
58686;BME280;44465;53.206;-6.106;2023-02-20T13:03:15;101848.97;;;20.75;54.40
58686;BME280;44465;53.206;-6.106;2023-02-20T13:05:46;101838.41;;;20.70;54.31
58686;BME280;44465;53.206;-6.106;2023-02-20T13:08:33;101837.41;;;20.74;54.30
58686;BME280;44465;53.206;-6.106;2023-02-20T13:11:09;101841.09;;;20.70;54.02
58686;BME280;44465;53.206;-6.106;2023-02-20T13:16:16;101786.09;;;20.38;54.15
58686;BME280;44465;53.206;-6.106;2023-02-20T13:18:53;101807.00;;;20.52;54.24
58686;BME280;44465;53.206;-6.106;2023-02-20T13:21:27;101841.91;;;20.72;54.17
58686;BME280;44465;53.206;-6.106;2023-02-20T13:24:11;101806.41;;;20.43;54.07
58686;BME280;44465;53.206;-6.106;2023-02-20T13:26:55;101819.25;;;20.59;54.31
58686;BME280;44465;53.206;-6.106;2023-02-20T13:29:23;101832.28;;;20.68;54.33
58686;BME280;44465;53.206;-6.106;2023-02-20T13:32:04;101801.38;;;20.59;54.26
58686;BME280;44465;53.206;-6.106;2023-02-20T13:34:45;101788.41;;;20.49;54.10
58686;BME280;44465;53.206;-6.106;2023-02-20T13:45:46;101833.81;;;20.75;54.36
58686;BME280;44465;53.206;-6.106;2023-02-20T13:50:44;101824.59;;;20.83;54.43
58686;BME280;44465;53.206;-6.106;2023-02-20T13:53:09;101760.00;;;20.44;54.53
58686;BME280;44465;53.206;-6.106;2023-02-20T13:55:35;101768.84;;;20.46;54.34
58686;BME280;44465;53.206;-6.106;2023-02-20T14:00:45;101813.06;;;20.81;54.30
58686;BME280;44465;53.206;-6.106;2023-02-20T14:03:17;101833.22;;;20.91;54.36
58686;BME280;44465;53.206;-6.106;2023-02-20T14:05:44;101820.66;;;20.93;54.44
58686;BME280;44465;53.206;-6.106;2023-02-20T14:08:17;101816.47;;;20.86;54.38
58686;BME280;44465;53.206;-6.106;2023-02-20T14:10:43;101831.25;;;20.96;54.32
58686;BME280;44465;53.206;-6.106;2023-02-20T14:13:17;101834.84;;;20.95;54.42
58686;BME280;44465;53.206;-6.106;2023-02-20T14:15:48;101829.38;;;20.98;54.38
58686;BME280;44465;53.206;-6.106;2023-02-20T14:18:24;101827.84;;;20.91;54.15
58686;BME280;44465;53.206;-6.106;2023-02-20T14:20:58;101834.03;;;20.93;54.53
58686;BME280;44465;53.206;-6.106;2023-02-20T14:23:31;101828.75;;;20.91;54.58
58686;BME280;44465;53.206;-6.106;2023-02-20T14:26:04;101818.84;;;20.94;54.35
58686;BME280;44465;53.206;-6.106;2023-02-20T14:28:34;101826.75;;;20.97;54.51
58686;BME280;44465;53.206;-6.106;2023-02-20T14:33:35;101826.72;;;20.98;54.51
58686;BME280;44465;53.206;-6.106;2023-02-20T14:36:09;101816.00;;;20.98;54.36